createdAt,value
2016-05-08T00:00:52.713Z,60.22
2016-05-08T00:01:52.746Z,60.22
2016-05-08T00:02:52.780Z,60.22
2016-05-08T00:03:52.830Z,60.03
2016-05-08T00:04:52.865Z,60.22
2016-05-08T00:05:52.898Z,60.13
2016-05-08T00:06:52.948Z,60.22
2016-05-08T00:07:52.982Z,60.13
2016-05-08T00:08:53.031Z,60.13
2016-05-08T00:09:53.065Z,60.03
2016-05-08T00:10:53.099Z,60.13
2016-05-08T00:11:53.148Z,60.03
2016-05-08T00:12:53.182Z,60.13
2016-05-08T00:13:53.232Z,60.13
2016-05-08T00:14:53.266Z,60.13
2016-05-08T00:15:53.300Z,60.22
2016-05-08T00:16:53.350Z,60.03
2016-05-08T00:17:53.384Z,60.13
2016-05-08T00:18:53.433Z,60.13
2016-05-08T00:19:53.467Z,60.22
2016-05-08T00:20:53.500Z,60.13
2016-05-08T00:21:53.550Z,60.13
2016-05-08T00:22:53.601Z,60.13
2016-05-08T00:23:53.634Z,60.03
2016-05-08T00:24:53.675Z,60.13
2016-05-08T00:25:53.709Z,60.03
2016-05-08T00:26:53.743Z,60.13
2016-05-08T00:27:54.089Z,60.13
2016-05-08T00:28:53.827Z,60.13
2016-05-08T00:29:53.876Z,60.13
2016-05-08T00:30:53.910Z,59.93
2016-05-08T00:31:53.960Z,60.13
2016-05-08T00:32:53.993Z,60.03
2016-05-08T00:33:54.042Z,60.03
2016-05-08T00:34:54.076Z,60.03
2016-05-08T00:35:54.111Z,60.13
2016-05-08T00:36:54.161Z,60.03
2016-05-08T00:37:54.195Z,59.83
2016-05-08T00:38:54.244Z,60.03
2016-05-08T00:39:54.278Z,60.03
2016-05-08T00:40:54.311Z,60.41
2016-05-08T00:41:54.345Z,60.51
2016-05-08T00:42:54.395Z,60.41
2016-05-08T00:43:54.430Z,59.93
2016-05-08T00:44:54.478Z,60.41
2016-05-08T00:45:54.513Z,60.41
2016-05-08T00:46:54.563Z,60.41
2016-05-08T00:47:54.597Z,60.41
2016-05-08T00:48:54.630Z,60.41
2016-05-08T00:49:54.680Z,60.41
2016-05-08T00:50:54.713Z,60.51
2016-05-08T00:51:54.747Z,60.41
2016-05-08T00:52:54.796Z,60.61
2016-05-08T00:53:54.847Z,60.51
2016-05-08T00:54:54.880Z,60.31
2016-05-08T00:55:54.915Z,60.51
2016-05-08T00:56:54.964Z,60.41
2016-05-08T00:57:54.998Z,60.31
2016-05-08T00:58:55.047Z,60.31
2016-05-08T00:59:55.082Z,60.41
2016-05-08T01:00:55.116Z,60.31
2016-05-08T01:01:55.165Z,60.13
2016-05-08T01:02:55.198Z,60.31
2016-05-08T01:03:55.234Z,60.41
2016-05-08T01:04:55.282Z,60.31
2016-05-08T01:05:55.317Z,60.22
2016-05-08T01:06:55.367Z,60.22
2016-05-08T01:07:55.400Z,60.22
2016-05-08T01:08:55.449Z,60.22
2016-05-08T01:09:55.483Z,60.22
2016-05-08T01:10:55.533Z,60.22
2016-05-08T01:11:55.567Z,60.41
2016-05-08T01:12:55.601Z,60.22
2016-05-08T01:13:55.650Z,60.22
2016-05-08T01:14:55.684Z,60.31
2016-05-08T01:15:55.719Z,60.31
2016-05-08T01:16:55.769Z,60.31
2016-05-08T01:17:55.802Z,60.22
2016-05-08T01:18:55.852Z,60.31
2016-05-08T01:19:55.885Z,60.41
2016-05-08T01:20:55.919Z,60.22
2016-05-08T01:21:55.969Z,60.41
2016-05-08T01:22:56.019Z,60.31
2016-05-08T01:23:56.052Z,60.41
2016-05-08T01:24:56.087Z,60.51
2016-05-08T01:25:56.121Z,60.41
2016-05-08T01:26:56.186Z,60.31
2016-05-08T01:27:56.204Z,60.51
2016-05-08T01:28:56.255Z,60.41
2016-05-08T01:29:56.288Z,60.31
2016-05-08T01:30:56.338Z,60.41
2016-05-08T01:31:56.371Z,60.51
2016-05-08T01:32:56.406Z,60.31
2016-05-08T01:33:56.455Z,60.51
2016-05-08T01:34:56.489Z,60.51
2016-05-08T01:35:56.554Z,60.51
2016-05-08T01:36:56.573Z,60.41
2016-05-08T01:37:56.606Z,60.22
2016-05-08T01:38:56.657Z,60.41
2016-05-08T01:39:56.721Z,60.41
2016-05-08T01:40:56.740Z,60.41
2016-05-08T01:41:56.773Z,60.31
2016-05-08T01:42:56.823Z,60.22
2016-05-08T01:43:56.857Z,60.41
2016-05-08T01:44:56.891Z,60.22
2016-05-08T01:45:56.940Z,60.31
2016-05-08T01:46:56.975Z,60.61
2016-05-08T01:47:57.024Z,60.61
2016-05-08T01:48:57.058Z,60.61
2016-05-08T01:49:57.092Z,60.51
2016-05-08T01:50:57.142Z,60.51
2016-05-08T01:51:57.175Z,60.61
2016-05-08T01:52:57.225Z,60.51
2016-05-08T01:53:57.259Z,60.51
2016-05-08T01:54:57.293Z,60.51
2016-05-08T01:55:57.342Z,60.51
2016-05-08T01:56:57.377Z,60.31
2016-05-08T01:57:57.425Z,60.41
2016-05-08T01:58:57.475Z,60.41
2016-05-08T01:59:57.494Z,60.41
2016-05-08T02:00:57.544Z,60.41
2016-05-08T02:01:57.578Z,60.41
2016-05-08T02:02:57.627Z,60.03
2016-05-08T02:03:57.660Z,60.22
2016-05-08T02:04:57.694Z,60.03
2016-05-08T02:05:57.744Z,60.22
2016-05-08T02:06:57.779Z,60.13
2016-05-08T02:07:57.813Z,60.22
2016-05-08T02:08:57.862Z,60.51
2016-05-08T02:09:57.895Z,60.51
2016-05-08T02:10:57.946Z,60.51
2016-05-08T02:11:57.980Z,60.61
2016-05-08T02:12:58.029Z,60.61
2016-05-08T02:13:58.063Z,60.51
2016-05-08T02:14:58.096Z,60.51
2016-05-08T02:15:58.146Z,60.61
2016-05-08T02:16:58.180Z,60.51
2016-05-08T02:17:58.230Z,60.51
2016-05-08T02:18:58.264Z,60.61
2016-05-08T02:19:58.314Z,60.71
2016-05-08T02:20:58.347Z,60.71
2016-05-08T02:21:58.412Z,60.51
2016-05-08T02:22:58.431Z,60.8
2016-05-08T02:23:58.465Z,60.51
2016-05-08T02:24:58.514Z,60.8
2016-05-08T02:25:58.548Z,60.71
2016-05-08T02:26:58.582Z,60.61
2016-05-08T02:27:58.631Z,60.61
2016-05-08T02:28:58.666Z,60.61
2016-05-08T02:29:58.716Z,60.71
2016-05-08T02:30:58.749Z,60.8
2016-05-08T02:31:58.783Z,60.8
2016-05-08T02:32:58.833Z,60.8
2016-05-08T02:33:58.866Z,60.61
2016-05-08T02:34:58.916Z,60.71
2016-05-08T02:35:58.950Z,60.8
2016-05-08T02:36:58.999Z,60.71
2016-05-08T02:37:59.033Z,60.61
2016-05-08T02:38:59.068Z,60.89
2016-05-08T02:39:59.117Z,60.99
2016-05-08T02:40:59.151Z,60.89
2016-05-08T02:41:59.234Z,60.99
2016-05-08T02:42:59.330Z,60.99
2016-05-08T02:43:59.411Z,60.89
2016-05-08T02:44:59.493Z,60.8
2016-05-08T02:45:59.574Z,60.99
2016-05-08T02:46:59.651Z,60.8
2016-05-08T02:47:59.703Z,60.8
2016-05-08T02:48:59.754Z,60.89
2016-05-08T02:49:59.821Z,60.8
2016-05-08T02:50:59.887Z,60.71
2016-05-08T02:51:59.931Z,60.8
2016-05-08T02:52:59.971Z,60.89
2016-05-08T02:54:00.028Z,60.89
2016-05-08T02:55:00.083Z,60.89
2016-05-08T02:56:00.106Z,60.71
2016-05-08T02:57:00.160Z,60.89
2016-05-08T02:58:00.337Z,60.8
2016-05-08T02:59:00.248Z,60.89
2016-05-08T03:00:00.285Z,60.89
2016-05-08T03:01:00.321Z,60.99
2016-05-08T03:02:00.372Z,60.99
2016-05-08T03:03:00.406Z,60.8
2016-05-08T03:04:00.456Z,60.89
2016-05-08T03:05:00.491Z,60.89
2016-05-08T03:06:00.526Z,60.89
2016-05-08T03:07:00.576Z,60.89
2016-05-08T03:08:00.610Z,60.8
2016-05-08T03:09:00.645Z,60.99
2016-05-08T03:10:00.695Z,61.09
2016-05-08T03:11:00.744Z,60.89
2016-05-08T03:12:00.779Z,60.99
2016-05-08T03:13:00.829Z,60.89
2016-05-08T03:14:00.846Z,60.89
2016-05-08T03:15:00.912Z,60.99
2016-05-08T03:16:00.929Z,61.09
2016-05-08T03:17:00.980Z,60.99
2016-05-08T03:18:01.029Z,60.99
2016-05-08T03:19:01.079Z,61.09
2016-05-08T03:20:01.097Z,60.99
2016-05-08T03:21:01.132Z,60.89
2016-05-08T03:22:01.181Z,61.09
2016-05-08T03:23:01.215Z,60.89
2016-05-08T03:24:01.264Z,60.99
2016-05-08T03:25:01.298Z,60.99
2016-05-08T03:26:01.331Z,60.99
2016-05-08T03:27:01.382Z,61.09
2016-05-08T03:28:01.415Z,60.99
2016-05-08T03:29:01.465Z,60.89
2016-05-08T03:30:01.499Z,60.89
2016-05-08T03:31:01.534Z,60.99
2016-05-08T03:32:01.582Z,61.19
2016-05-08T03:33:01.617Z,60.89
2016-05-08T03:34:01.666Z,60.89
2016-05-08T03:35:01.699Z,61.28
2016-05-08T03:36:01.750Z,61.47
2016-05-08T03:37:01.783Z,61.38
2016-05-08T03:38:01.817Z,61.47
2016-05-08T03:39:01.866Z,61.28
2016-05-08T03:40:01.916Z,61.28
2016-05-08T03:41:01.966Z,61.38
2016-05-08T03:42:01.999Z,61.57
2016-05-08T03:43:02.175Z,61.57
2016-05-08T03:44:02.068Z,61.38
2016-05-08T03:45:02.102Z,61.28
2016-05-08T03:46:02.151Z,61.38
2016-05-08T03:47:02.185Z,61.57
2016-05-08T03:48:02.219Z,61.47
2016-05-08T03:49:02.269Z,61.57
2016-05-08T03:50:02.303Z,61.38
2016-05-08T03:51:02.352Z,61.57
2016-05-08T03:52:02.386Z,61.38
2016-05-08T03:53:02.420Z,61.47
2016-05-08T03:54:02.470Z,61.47
2016-05-08T03:55:02.504Z,61.38
2016-05-08T03:56:02.553Z,61.47
2016-05-08T03:57:02.587Z,61.47
2016-05-08T03:58:02.621Z,61.47
2016-05-08T03:59:02.670Z,61.47
2016-05-08T04:00:02.705Z,61.28
2016-05-08T04:01:02.754Z,61.47
2016-05-08T04:02:02.789Z,61.47
2016-05-08T04:03:02.838Z,61.47
2016-05-08T04:04:02.872Z,61.28
2016-05-08T04:05:02.905Z,61.38
2016-05-08T04:06:02.955Z,61.19
2016-05-08T04:07:02.989Z,61.38
2016-05-08T04:08:03.039Z,61.38
2016-05-08T04:09:03.072Z,61.47
2016-05-08T04:10:03.122Z,60.99
2016-05-08T04:11:03.156Z,61.38
2016-05-08T04:12:03.191Z,61.47
2016-05-08T04:13:03.896Z,61.28
2016-05-08T04:14:03.274Z,61.47
2016-05-08T04:15:03.307Z,61.28
2016-05-08T04:16:03.357Z,61.28
2016-05-08T04:17:03.391Z,61.38
2016-05-08T04:18:03.441Z,61.47
2016-05-08T04:19:03.474Z,61.28
2016-05-08T04:20:03.524Z,61.47
2016-05-08T04:21:03.558Z,61.57
2016-05-08T04:22:03.593Z,61.38
2016-05-08T04:23:03.642Z,61.57
2016-05-08T04:24:03.675Z,61.38
2016-05-08T04:25:03.725Z,61.19
2016-05-08T04:26:03.759Z,61.19
2016-05-08T04:27:03.809Z,61.28
2016-05-08T04:28:03.859Z,61.47
2016-05-08T04:29:03.892Z,61.57
2016-05-08T04:30:03.925Z,61.57
2016-05-08T04:31:03.975Z,61.28
2016-05-08T04:32:04.010Z,61.38
2016-05-08T04:33:04.044Z,61.19
2016-05-08T04:34:04.077Z,61.19
2016-05-08T04:35:04.127Z,61.57
2016-05-08T04:36:04.160Z,61.57
2016-05-08T04:37:04.211Z,61.67
2016-05-08T04:38:04.244Z,61.47
2016-05-08T04:39:04.294Z,61.47
2016-05-08T04:40:04.327Z,61.57
2016-05-08T04:41:04.362Z,61.57
2016-05-08T04:42:04.411Z,61.47
2016-05-08T04:43:04.445Z,61.47
2016-05-08T04:44:04.494Z,61.38
2016-05-08T04:45:04.530Z,61.38
2016-05-08T04:46:04.562Z,61.57
2016-05-08T04:47:04.613Z,61.47
2016-05-08T04:48:04.646Z,61.28
2016-05-08T04:49:04.695Z,61.38
2016-05-08T04:50:04.729Z,61.38
2016-05-08T04:51:04.780Z,61.28
2016-05-08T04:52:04.813Z,61.28
2016-05-08T04:53:04.848Z,61.47
2016-05-08T04:54:04.896Z,61.19
2016-05-08T04:55:04.931Z,61.28
2016-05-08T04:56:04.980Z,61.28
2016-05-08T04:57:05.015Z,61.38
2016-05-08T04:58:05.314Z,61.28
2016-05-08T04:59:05.097Z,61.38
2016-05-08T05:00:05.131Z,61.38
2016-05-08T05:01:05.181Z,61.47
2016-05-08T05:02:05.215Z,61.41
2016-05-08T05:03:05.265Z,61.38
2016-05-08T05:04:05.298Z,61.38
2016-05-08T05:05:05.348Z,61.86
2016-05-08T05:06:05.382Z,61.47
2016-05-08T05:07:05.416Z,61.19
2016-05-08T05:08:05.466Z,61.77
2016-05-08T05:09:05.500Z,61.96
2016-05-08T05:10:05.533Z,61.86
2016-05-08T05:11:05.583Z,61.57
2016-05-08T05:12:05.617Z,61.96
2016-05-08T05:13:05.651Z,61.28
2016-05-08T05:14:05.700Z,61.96
2016-05-08T05:15:05.735Z,61.28
2016-05-08T05:16:05.784Z,61.28
2016-05-08T05:17:05.818Z,61.89
2016-05-08T05:18:05.868Z,61.86
2016-05-08T05:19:05.901Z,61.96
2016-05-08T05:20:05.951Z,61.8
2016-05-08T05:21:05.985Z,61.86
2016-05-08T05:22:06.019Z,61.6
2016-05-08T05:23:06.068Z,61.77
2016-05-08T05:24:06.102Z,61.41
2016-05-08T05:25:06.152Z,61.77
2016-05-08T05:26:06.187Z,61.8
2016-05-08T05:27:06.220Z,61.77
2016-05-08T05:28:06.270Z,61.86
2016-05-08T05:29:06.303Z,61.47
2016-05-08T05:30:06.353Z,61.89
2016-05-08T05:31:06.387Z,61.67
2016-05-08T05:32:06.437Z,61.67
2016-05-08T05:33:06.470Z,61.47
2016-05-08T05:34:06.520Z,61.7
2016-05-08T05:35:06.554Z,61.8
2016-05-08T05:36:06.589Z,61.96
2016-05-08T05:37:06.622Z,61.99
2016-05-08T05:38:06.671Z,61.8
2016-05-08T05:39:06.721Z,61.77
2016-05-08T05:40:06.755Z,61.77
2016-05-08T05:41:06.789Z,61.8
2016-05-08T05:42:06.839Z,61.77
2016-05-08T05:43:06.982Z,61.7
2016-05-08T05:44:06.921Z,61.67
2016-05-08T05:45:06.955Z,61.7
2016-05-08T05:46:06.991Z,61.67
2016-05-08T05:47:07.039Z,61.8
2016-05-08T05:48:07.074Z,61.67
2016-05-08T05:49:07.123Z,61.8
2016-05-08T05:50:07.157Z,61.7
2016-05-08T05:51:07.206Z,61.7
2016-05-08T05:52:07.241Z,61.8
2016-05-08T05:53:07.274Z,61.7
2016-05-08T05:54:07.324Z,61.7
2016-05-08T05:55:07.357Z,61.8
2016-05-08T05:56:07.407Z,61.8
2016-05-08T05:57:07.440Z,61.7
2016-05-08T05:58:07.490Z,61.6
2016-05-08T05:59:07.525Z,61.99
2016-05-08T06:00:07.559Z,61.6
2016-05-08T06:01:07.608Z,62.15
2016-05-08T06:02:07.642Z,62.08
2016-05-08T06:03:07.692Z,61.8
2016-05-08T06:04:07.726Z,62.05
2016-05-08T06:05:07.776Z,62.18
2016-05-08T06:06:07.809Z,62.08
2016-05-08T06:07:07.842Z,62.08
2016-05-08T06:08:07.892Z,62.18
2016-05-08T06:09:07.927Z,61.7
2016-05-08T06:10:07.975Z,61.89
2016-05-08T06:11:08.011Z,61.7
2016-05-08T06:12:08.060Z,61.7
2016-05-08T06:13:08.094Z,61.89
2016-05-08T06:14:08.128Z,61.89
2016-05-08T06:15:08.177Z,61.99
2016-05-08T06:16:08.211Z,61.89
2016-05-08T06:17:08.244Z,61.89
2016-05-08T06:18:08.294Z,61.8
2016-05-08T06:19:08.329Z,61.89
2016-05-08T06:20:08.378Z,61.89
2016-05-08T06:21:08.412Z,61.8
2016-05-08T06:22:08.462Z,61.89
2016-05-08T06:23:08.495Z,61.8
2016-05-08T06:24:08.529Z,61.8
2016-05-08T06:25:08.579Z,61.8
2016-05-08T06:26:08.612Z,61.8
2016-05-08T06:27:08.663Z,62.08
2016-05-08T06:28:08.696Z,61.8
2016-05-08T06:29:08.746Z,61.7
2016-05-08T06:30:08.779Z,61.89
2016-05-08T06:31:08.829Z,61.8
2016-05-08T06:32:08.864Z,62.18
2016-05-08T06:33:08.897Z,61.99
2016-05-08T06:34:08.947Z,62.18
2016-05-08T06:35:08.981Z,61.99
2016-05-08T06:36:09.031Z,61.99
2016-05-08T06:37:09.064Z,61.99
2016-05-08T06:38:09.130Z,61.99
2016-05-08T06:39:09.147Z,61.99
2016-05-08T06:40:09.197Z,61.99
2016-05-08T06:41:09.231Z,61.89
2016-05-08T06:42:09.266Z,61.89
2016-05-08T06:43:09.315Z,61.99
2016-05-08T06:44:09.349Z,61.89
2016-05-08T06:45:09.399Z,61.99
2016-05-08T06:46:09.433Z,61.89
2016-05-08T06:47:09.466Z,62.08
2016-05-08T06:48:09.516Z,61.89
2016-05-08T06:49:09.550Z,61.6
2016-05-08T06:50:09.599Z,61.99
2016-05-08T06:51:09.633Z,62.08
2016-05-08T06:52:09.668Z,61.89
2016-05-08T06:53:09.717Z,61.89
2016-05-08T06:54:09.751Z,61.99
2016-05-08T06:55:09.801Z,61.99
2016-05-08T06:56:09.834Z,62.08
2016-05-08T06:57:09.884Z,61.99
2016-05-08T06:58:09.917Z,62.08
2016-05-08T06:59:09.967Z,61.99
2016-05-08T07:00:10.001Z,61.99
2016-05-08T07:01:10.035Z,61.89
2016-05-08T07:02:10.085Z,61.99
2016-05-08T07:03:10.118Z,61.89
2016-05-08T07:04:10.168Z,61.89
2016-05-08T07:05:10.203Z,62.28
2016-05-08T07:06:10.236Z,61.99
2016-05-08T07:07:10.286Z,61.8
2016-05-08T07:08:10.319Z,61.89
2016-05-08T07:09:10.369Z,62.08
2016-05-08T07:10:10.419Z,62.18
2016-05-08T07:11:10.452Z,62.18
2016-05-08T07:12:10.486Z,62.18
2016-05-08T07:13:10.536Z,62.18
2016-05-08T07:14:10.570Z,62.18
2016-05-08T07:15:10.605Z,61.99
2016-05-08T07:16:10.653Z,62.18
2016-05-08T07:17:10.688Z,61.99
2016-05-08T07:18:10.737Z,62.08
2016-05-08T07:19:10.771Z,61.99
2016-05-08T07:20:10.821Z,62.18
2016-05-08T07:21:10.854Z,62.18
2016-05-08T07:22:10.889Z,62.18
2016-05-08T07:23:10.938Z,62.37
2016-05-08T07:24:10.972Z,62.37
2016-05-08T07:25:11.022Z,62.28
2016-05-08T07:26:11.055Z,62.18
2016-05-08T07:27:11.105Z,62.28
2016-05-08T07:28:11.140Z,62.28
2016-05-08T07:29:11.173Z,62.28
2016-05-08T07:30:11.222Z,62.57
2016-05-08T07:31:11.257Z,62.37
2016-05-08T07:32:11.306Z,62.47
2016-05-08T07:33:11.340Z,62.47
2016-05-08T07:34:11.374Z,62.37
2016-05-08T07:35:11.423Z,62.37
2016-05-08T07:36:11.457Z,62.37
2016-05-08T07:37:11.507Z,62.37
2016-05-08T07:38:11.542Z,62.47
2016-05-08T07:39:11.590Z,62.47
2016-05-08T07:40:11.624Z,62.28
2016-05-08T07:41:11.659Z,62.37
2016-05-08T07:42:11.708Z,62.66
2016-05-08T07:43:11.758Z,62.57
2016-05-08T07:44:11.807Z,62.57
2016-05-08T07:45:11.841Z,62.66
2016-05-08T07:46:11.875Z,62.47
2016-05-08T07:47:11.909Z,62.57
2016-05-08T07:48:11.958Z,62.57
2016-05-08T07:49:11.991Z,62.47
2016-05-08T07:50:12.026Z,62.57
2016-05-08T07:51:12.076Z,62.47
2016-05-08T07:52:12.110Z,62.57
2016-05-08T07:53:12.160Z,62.86
2016-05-08T07:54:12.193Z,62.86
2016-05-08T07:55:12.243Z,62.95
2016-05-08T07:56:12.277Z,62.86
2016-05-08T07:57:12.310Z,62.76
2016-05-08T07:58:12.360Z,62.76
2016-05-08T07:59:12.394Z,62.66
2016-05-08T08:00:12.443Z,62.95
2016-05-08T08:01:12.478Z,62.47
2016-05-08T08:02:12.527Z,62.95
2016-05-08T08:03:12.561Z,62.86
2016-05-08T08:04:12.611Z,62.86
2016-05-08T08:05:12.645Z,62.95
2016-05-08T08:06:12.679Z,62.95
2016-05-08T08:07:12.728Z,62.76
2016-05-08T08:08:12.762Z,62.76
2016-05-08T08:09:12.812Z,62.76
2016-05-08T08:10:12.845Z,63.05
2016-05-08T08:11:12.895Z,62.86
2016-05-08T08:12:12.929Z,62.86
2016-05-08T08:13:13.525Z,62.76
2016-05-08T08:14:13.013Z,63.15
2016-05-08T08:15:13.047Z,63.15
2016-05-08T08:16:13.097Z,63.15
2016-05-08T08:17:13.130Z,63.24
2016-05-08T08:18:13.180Z,63.15
2016-05-08T08:19:13.230Z,63.05
2016-05-08T08:20:13.263Z,63.43
2016-05-08T08:21:13.297Z,63.34
2016-05-08T08:22:13.331Z,63.43
2016-05-08T08:23:13.380Z,63.63
2016-05-08T08:24:13.415Z,63.34
2016-05-08T08:25:13.464Z,63.43
2016-05-08T08:26:13.498Z,63.63
2016-05-08T08:27:13.532Z,63.92
2016-05-08T08:28:13.582Z,63.92
2016-05-08T08:29:13.632Z,63.24
2016-05-08T08:30:13.665Z,63.53
2016-05-08T08:31:13.699Z,63.53
2016-05-08T08:32:13.749Z,63.63
2016-05-08T08:33:13.782Z,64.11
2016-05-08T08:34:13.832Z,64.14
2016-05-08T08:35:13.865Z,64.14
2016-05-08T08:36:13.900Z,63.85
2016-05-08T08:37:13.950Z,63.95
2016-05-08T08:38:13.984Z,64.14
2016-05-08T08:39:14.033Z,64.34
2016-05-08T08:40:14.067Z,64.14
2016-05-08T08:41:14.117Z,64.21
2016-05-08T08:42:14.151Z,64.24
2016-05-08T08:43:14.325Z,64.34
2016-05-08T08:44:14.233Z,64.05
2016-05-08T08:45:14.283Z,63.95
2016-05-08T08:46:14.317Z,64.05
2016-05-08T08:47:14.352Z,64.14
2016-05-08T08:48:14.400Z,63.56
2016-05-08T08:49:14.435Z,63.37
2016-05-08T08:50:14.485Z,63.28
2016-05-08T08:51:14.519Z,63.92
2016-05-08T08:52:14.568Z,63.53
2016-05-08T08:53:14.602Z,63.34
2016-05-08T08:54:14.635Z,63.43
2016-05-08T08:55:14.685Z,63.24
2016-05-08T08:56:14.719Z,63.43
2016-05-08T08:57:14.768Z,62.95
2016-05-08T08:58:14.803Z,63.24
2016-05-08T08:59:14.837Z,63.05
2016-05-08T09:00:14.887Z,63.05
2016-05-08T09:01:14.921Z,62.76
2016-05-08T09:02:14.970Z,62.86
2016-05-08T09:03:15.004Z,62.86
2016-05-08T09:04:15.053Z,62.86
2016-05-08T09:05:15.087Z,62.57
2016-05-08T09:06:15.121Z,62.57
2016-05-08T09:07:15.170Z,62.63
2016-05-08T09:08:15.205Z,62.57
2016-05-08T09:09:15.254Z,62.54
2016-05-08T09:10:15.288Z,62.44
2016-05-08T09:11:15.338Z,62.54
2016-05-08T09:12:15.372Z,62.34
2016-05-08T09:13:15.422Z,62.34
2016-05-08T09:14:15.455Z,62.15
2016-05-08T09:15:15.489Z,61.86
2016-05-08T09:16:15.539Z,61.86
2016-05-08T09:17:15.572Z,61.96
2016-05-08T09:18:15.622Z,61.96
2016-05-08T09:19:15.655Z,61.77
2016-05-08T09:20:15.691Z,61.77
2016-05-08T09:21:15.740Z,61.96
2016-05-08T09:22:15.774Z,62.05
2016-05-08T09:23:15.824Z,61.77
2016-05-08T09:24:15.857Z,61.67
2016-05-08T09:25:15.891Z,61.67
2016-05-08T09:26:15.941Z,61.67
2016-05-08T09:27:15.974Z,61.96
2016-05-08T09:28:16.040Z,61.38
2016-05-08T09:29:16.058Z,62.05
2016-05-08T09:30:16.093Z,61.47
2016-05-08T09:31:16.141Z,61.57
2016-05-08T09:32:16.176Z,61.19
2016-05-08T09:33:16.225Z,61.47
2016-05-08T09:34:16.260Z,61.38
2016-05-08T09:35:16.293Z,61.09
2016-05-08T09:36:16.342Z,61.38
2016-05-08T09:37:16.376Z,61.47
2016-05-08T09:38:16.426Z,61.47
2016-05-08T09:39:16.476Z,61.38
2016-05-08T09:40:16.494Z,61.38
2016-05-08T09:41:16.543Z,61.09
2016-05-08T09:42:16.578Z,60.89
2016-05-08T09:43:16.767Z,60.99
2016-05-08T09:44:16.661Z,60.89
2016-05-08T09:45:16.710Z,60.89
2016-05-08T09:46:16.744Z,60.99
2016-05-08T09:47:16.779Z,60.89
2016-05-08T09:48:16.828Z,60.89
2016-05-08T09:49:16.862Z,60.8
2016-05-08T09:50:16.911Z,60.89
2016-05-08T09:51:16.945Z,60.99
2016-05-08T09:52:16.980Z,60.61
2016-05-08T09:53:17.029Z,60.61
2016-05-08T09:54:17.063Z,60.61
2016-05-08T09:55:17.112Z,60.8
2016-05-08T09:56:17.147Z,60.51
2016-05-08T09:57:17.196Z,60.8
2016-05-08T09:58:17.230Z,60.71
2016-05-08T09:59:17.264Z,60.71
2016-05-08T10:00:17.313Z,60.51
2016-05-08T10:01:17.347Z,60.61
2016-05-08T10:02:17.396Z,60.61
2016-05-08T10:03:17.431Z,60.22
2016-05-08T10:04:17.480Z,60.41
2016-05-08T10:05:17.515Z,60.31
2016-05-08T10:06:17.548Z,60.61
2016-05-08T10:07:17.598Z,60.61
2016-05-08T10:08:17.632Z,60.61
2016-05-08T10:09:17.665Z,60.31
2016-05-08T10:10:17.715Z,60.41
2016-05-08T10:11:17.748Z,60.31
2016-05-08T10:12:17.798Z,60.31
2016-05-08T10:13:17.834Z,60.41
2016-05-08T10:14:17.866Z,60.31
2016-05-08T10:15:17.917Z,60.31
2016-05-08T10:16:17.950Z,60.22
2016-05-08T10:17:18.000Z,60.22
2016-05-08T10:18:18.034Z,60.22
2016-05-08T10:19:18.067Z,60.31
2016-05-08T10:20:18.117Z,60.31
2016-05-08T10:21:18.151Z,60.22
2016-05-08T10:22:18.200Z,60.22
2016-05-08T10:23:18.235Z,60.22
2016-05-08T10:24:18.280Z,60.22
2016-05-08T10:25:18.314Z,60.22
2016-05-08T10:26:18.363Z,60.22
2016-05-08T10:27:18.413Z,60.31
2016-05-08T10:28:18.446Z,60.22
2016-05-08T10:29:18.480Z,60.31
2016-05-08T10:30:18.514Z,60.22
2016-05-08T10:31:18.564Z,60.22
2016-05-08T10:32:18.597Z,60.31
2016-05-08T10:33:18.647Z,60.22
2016-05-08T10:34:18.682Z,60.31
2016-05-08T10:35:18.715Z,60.31
2016-05-08T10:36:18.765Z,60.31
2016-05-08T10:37:18.798Z,60.31
2016-05-08T10:38:18.848Z,60.41
2016-05-08T10:39:18.882Z,60.41
2016-05-08T10:40:18.931Z,60.31
2016-05-08T10:41:18.965Z,60.31
2016-05-08T10:42:18.999Z,60.51
2016-05-08T10:43:19.049Z,60.31
2016-05-08T10:44:19.083Z,60.31
2016-05-08T10:45:19.132Z,60.41
2016-05-08T10:46:19.167Z,60.51
2016-05-08T10:47:19.201Z,60.61
2016-05-08T10:48:19.250Z,60.61
2016-05-08T10:49:19.284Z,60.54
2016-05-08T10:50:19.334Z,60.41
2016-05-08T10:51:19.368Z,60.54
2016-05-08T10:52:19.401Z,60.44
2016-05-08T10:53:19.451Z,60.54
2016-05-08T10:54:19.485Z,60.64
2016-05-08T10:55:19.534Z,60.64
2016-05-08T10:56:19.569Z,60.83
2016-05-08T10:57:19.619Z,60.8
2016-05-08T10:58:21.183Z,60.83
2016-05-08T10:59:19.686Z,60.73
2016-05-08T11:00:19.736Z,60.73
2016-05-08T11:01:19.785Z,60.64
2016-05-08T11:02:19.819Z,61.02
2016-05-08T11:03:19.852Z,60.93
2016-05-08T11:04:19.902Z,60.73
2016-05-08T11:05:19.935Z,60.83
2016-05-08T11:06:19.970Z,60.83
2016-05-08T11:07:20.021Z,60.93
2016-05-08T11:08:20.054Z,60.93
2016-05-08T11:09:20.103Z,61.02
2016-05-08T11:10:20.137Z,60.93
2016-05-08T11:11:20.187Z,60.93
2016-05-08T11:12:20.221Z,60.93
2016-05-08T11:13:20.254Z,60.93
2016-05-08T11:14:20.304Z,61.12
2016-05-08T11:15:20.338Z,61.12
2016-05-08T11:16:20.388Z,60.93
2016-05-08T11:17:20.423Z,61.12
2016-05-08T11:18:20.471Z,61.02
2016-05-08T11:19:20.506Z,61.31
2016-05-08T11:20:20.539Z,61.31
2016-05-08T11:21:20.589Z,61.31
2016-05-08T11:22:20.622Z,61.51
2016-05-08T11:23:20.672Z,61.7
2016-05-08T11:24:20.706Z,61.6
2016-05-08T11:25:20.756Z,61.51
2016-05-08T11:26:20.789Z,61.51
2016-05-08T11:27:20.824Z,61.31
2016-05-08T11:28:20.967Z,61.31
2016-05-08T11:29:20.907Z,61.41
2016-05-08T11:30:20.957Z,61.31
2016-05-08T11:31:20.990Z,61.51
2016-05-08T11:32:21.025Z,61.51
2016-05-08T11:33:21.075Z,61.31
2016-05-08T11:34:21.124Z,61.41
2016-05-08T11:35:21.142Z,61.6
2016-05-08T11:36:21.191Z,61.22
2016-05-08T11:37:21.226Z,61.22
2016-05-08T11:38:21.275Z,61.31
2016-05-08T11:39:21.309Z,61.41
2016-05-08T11:40:21.359Z,61.31
2016-05-08T11:41:21.393Z,61.31
2016-05-08T11:42:21.442Z,61.41
2016-05-08T11:43:21.476Z,61.41
2016-05-08T11:44:21.526Z,61.31
2016-05-08T11:45:21.559Z,61.12
2016-05-08T11:46:21.593Z,61.51
2016-05-08T11:47:21.642Z,61.51
2016-05-08T11:48:21.709Z,61.31
2016-05-08T11:49:21.801Z,61.41
2016-05-08T11:50:21.877Z,61.41
2016-05-08T11:51:21.953Z,61.99
2016-05-08T11:52:22.044Z,61.89
2016-05-08T11:53:22.099Z,61.8
2016-05-08T11:54:22.164Z,61.99
2016-05-08T11:55:22.243Z,61.51
2016-05-08T11:56:22.277Z,61.7
2016-05-08T11:57:22.325Z,61.7
2016-05-08T11:58:22.367Z,61.7
2016-05-08T11:59:22.422Z,61.8
2016-05-08T12:00:22.462Z,61.8
2016-05-08T12:01:22.516Z,61.6
2016-05-08T12:02:22.556Z,61.7
2016-05-08T12:03:22.609Z,61.8
2016-05-08T12:04:22.644Z,61.8
2016-05-08T12:05:22.680Z,61.7
2016-05-08T12:06:22.731Z,61.8
2016-05-08T12:07:22.767Z,61.89
2016-05-08T12:08:22.817Z,61.7
2016-05-08T12:09:22.852Z,61.7
2016-05-08T12:10:22.903Z,61.8
2016-05-08T12:11:22.937Z,61.7
2016-05-08T12:12:22.988Z,61.8
2016-05-08T12:13:23.022Z,61.8
2016-05-08T12:14:23.055Z,61.8
2016-05-08T12:15:23.106Z,61.8
2016-05-08T12:16:23.139Z,61.8
2016-05-08T12:17:23.189Z,61.7
2016-05-08T12:18:23.222Z,61.8
2016-05-08T12:19:23.273Z,61.8
2016-05-08T12:20:23.307Z,61.7
2016-05-08T12:21:23.340Z,61.8
2016-05-08T12:22:23.390Z,61.6
2016-05-08T12:23:23.424Z,61.8
2016-05-08T12:24:23.473Z,61.7
2016-05-08T12:25:23.507Z,61.7
2016-05-08T12:26:23.541Z,61.8
2016-05-08T12:27:23.591Z,61.7
2016-05-08T12:28:23.828Z,61.8
2016-05-08T12:29:23.674Z,61.7
2016-05-08T12:30:23.724Z,61.7
2016-05-08T12:31:23.758Z,61.7
2016-05-08T12:32:23.791Z,61.7
2016-05-08T12:33:23.826Z,61.8
2016-05-08T12:34:23.874Z,61.7
2016-05-08T12:35:23.910Z,61.89
2016-05-08T12:36:23.960Z,61.6
2016-05-08T12:37:23.993Z,61.7
2016-05-08T12:38:24.043Z,61.7
2016-05-08T12:39:24.076Z,61.7
2016-05-08T12:40:24.126Z,61.7
2016-05-08T12:41:24.160Z,61.7
2016-05-08T12:42:24.193Z,61.7
2016-05-08T12:43:24.243Z,61.7
2016-05-08T12:44:24.277Z,61.8
2016-05-08T12:45:24.326Z,61.8
2016-05-08T12:46:24.361Z,61.89
2016-05-08T12:47:24.410Z,61.7
2016-05-08T12:48:24.444Z,61.7
2016-05-08T12:49:24.478Z,61.7
2016-05-08T12:50:24.527Z,61.89
2016-05-08T12:51:24.561Z,61.8
2016-05-08T12:52:24.612Z,61.89
2016-05-08T12:53:24.645Z,61.7
2016-05-08T12:54:24.695Z,61.8
2016-05-08T12:55:24.728Z,61.8
2016-05-08T12:56:24.794Z,61.51
2016-05-08T12:57:24.811Z,61.7